Greenville, SC

11:43 PM EDT on September 02, 2014 (GMT -0400)
Augusta Rd / Riverside Dr Area | Change Station
CLOSE
Current Station
Personal Weather Station
Location: Greenville, SC
Elevation: 967 ft
Nearby Weather Stations

Elev 967 ft 34.81 °N, 82.38 °W | Updated 14 minutes ago

Clear
Clear
73.3 °F
Feels Like 73 °F
N
0.0
Wind Variable Wind from SW
Gusts 2.0 mph

Today
High -- | Low -- °F
--% Chance of Precip.
Yesterday
High -- | Low -- °F
Precip. -- in
7:03 AM 7:54 PM
First Quarter, 58% visible
Pressure 30.03 in
Visibility 10.0 miles
Clouds Clear
Heat Index 73 °F
Dew Point 67 °F
Humidity 81%
Rainfall 0.00 in
Snow Depth Not available.
UV 0 out of 12
Pollen 9.90 out of 12
Ozone Good
PM2.5 Moderate
Flu Activity Not available.
METAR KGMU 030153Z AUTO 19010KT 10SM CLR 27/20 A3006 RMK AO2 LTG DSNT S SLP168 T02720200

More Conditions Fewer Conditions

Pressure 30.03 in
Visibility 10.0 miles
Clouds Clear
Heat Index 73 °F
Dew Point 67 °F
Humidity 81%
Rainfall 0.00 in
Snow Depth Not available.
UV 0 out of 12
Pollen 9.90 out of 12
Ozone Good
PM2.5 Moderate
Flu Activity Not available.
METAR KGMU 030153Z AUTO 19010KT 10SM CLR 27/20 A3006 RMK AO2 LTG DSNT S SLP168 T02720200

More Conditions Fewer Conditions

10-Day Weather Forecast

Almanac

Astronomy

Sep. 02, 2014 Rise Set
Actual Time 7:03 AM EDT 7:54 PM EDT
Civil Twilight 6:37 AM EDT 8:20 PM EDT
Nautical Twilight 6:06 AM EDT 8:50 PM EDT
Astronomical Twilight 5:35 AM EDT 9:22 PM EDT
Moon 2:29 PM EDT (9/2) 12:12 AM EDT (9/2)
Length of Visible Light 13h 43m
Length of Day
12h 51m
Tomorrow will be 2m 6s shorter.
First Quarter, 58% of the Moon is Illuminated
Today
First Quarter
Sep 8
Full
Sep 15
Last Quarter
Sep 24
New
Oct 1
First Quarter

Today's Extremes

State Highs State Lows

Community

WunderPhotos

Upload Photos

1,749,867 photos uploaded!

WunderBlogs® & News

Nearby

Air Quality

  Air Quality AQ Index Pollutant
Yesterday Good
PM2.5
Yesterday Good
OZONE
Current Moderate
PM2.5
Current Good
OZONE
Tuesday Good
OZONE
Wednesday Good
OZONE

Snow Depth

Station Depth Elevation
No new snow has been reported.

Earthquake Activity

City Distance Mag. Time & Date
No recent earthquake activity has been reported nearby.
Minimum magnitude displayed is 2.5.

Coastal Water Temperatures

Place Temperature
No Stations Reporting

Nearby Weather Stations